createdAt,value
2019-01-30T00:04:24.105Z,3.63
2019-01-30T00:06:34.935Z,3.23
2019-01-30T00:08:45.739Z,3.47
2019-01-30T00:10:56.569Z,3.77
2019-01-30T00:13:07.463Z,3.87
2019-01-30T00:15:18.374Z,4.03
2019-01-30T00:17:29.193Z,4.20
2019-01-30T00:19:39.986Z,4.50
2019-01-30T00:21:50.827Z,4.30
2019-01-30T00:24:01.634Z,4.07
2019-01-30T00:26:12.641Z,3.77
2019-01-30T00:28:23.546Z,4.17
2019-01-30T00:30:34.370Z,4.30
2019-01-30T00:32:45.283Z,4.17
2019-01-30T00:34:56.072Z,4.57
2019-01-30T00:37:06.877Z,4.50
2019-01-30T00:39:17.689Z,4.70
2019-01-30T00:41:28.479Z,4.83
2019-01-30T00:43:39.301Z,5.00
2019-01-30T00:45:50.091Z,4.40
2019-01-30T00:48:00.930Z,4.37
2019-01-30T00:50:53.387Z,4.20
2019-01-30T00:53:04.310Z,4.13
2019-01-30T00:55:15.281Z,4.60
2019-01-30T00:57:26.142Z,4.77
2019-01-30T00:59:36.974Z,4.40
2019-01-30T01:01:47.840Z,4.83
2019-01-30T01:03:58.656Z,5.17
2019-01-30T01:06:09.447Z,4.87
2019-01-30T01:08:20.261Z,4.60
2019-01-30T01:10:31.109Z,4.73
2019-01-30T01:12:41.904Z,4.97
2019-01-30T01:14:52.718Z,4.77
2019-01-30T01:17:03.706Z,5.13
2019-01-30T01:19:14.572Z,5.00
2019-01-30T01:21:25.386Z,5.10
2019-01-30T01:23:36.177Z,4.70
2019-01-30T01:25:47.004Z,5.00
2019-01-30T01:27:57.894Z,4.83
2019-01-30T01:30:28.681Z,4.87
2019-01-30T01:32:39.585Z,5.13
2019-01-30T01:34:50.436Z,5.13
2019-01-30T01:37:01.210Z,5.50
2019-01-30T01:39:12.013Z,4.27
2019-01-30T01:41:22.827Z,5.07
2019-01-30T01:43:33.647Z,4.97
2019-01-30T01:45:44.472Z,4.73
2019-01-30T01:47:55.275Z,4.50
2019-01-30T01:50:47.734Z,4.73
2019-01-30T01:52:58.536Z,4.07
2019-01-30T01:55:51.004Z,4.17
2019-01-30T01:58:01.812Z,4.90
2019-01-30T02:00:35.519Z,4.87
2019-01-30T02:02:45.287Z,4.40
2019-01-30T02:04:56.087Z,4.43
2019-01-30T02:07:06.897Z,4.93
2019-01-30T02:09:17.706Z,5.13
2019-01-30T02:11:28.516Z,4.57
2019-01-30T02:13:39.305Z,4.60
2019-01-30T02:15:50.122Z,5.03
2019-01-30T02:18:01.058Z,5.37
2019-01-30T02:20:53.504Z,4.57
2019-01-30T02:23:04.444Z,5.23
2019-01-30T02:25:15.336Z,5.10
2019-01-30T02:27:26.159Z,4.87
2019-01-30T02:29:36.967Z,4.87
2019-01-30T02:31:47.788Z,4.73
2019-01-30T02:33:58.690Z,4.73
2019-01-30T02:36:09.501Z,4.87
2019-01-30T02:38:20.426Z,4.73
2019-01-30T02:40:31.231Z,4.60
2019-01-30T02:42:42.200Z,4.90
2019-01-30T02:47:45.476Z,5.20
2019-01-30T02:49:56.324Z,5.07
2019-01-30T02:52:07.110Z,5.13
2019-01-30T02:54:17.939Z,4.60
2019-01-30T02:56:28.740Z,5.23
2019-01-30T02:58:39.567Z,5.17
2019-01-30T03:00:58.917Z,5.30
2019-01-30T03:03:03.400Z,5.17
2019-01-30T03:05:14.190Z,5.37
2019-01-30T03:07:25.011Z,5.30
2019-01-30T03:09:35.888Z,5.10
2019-01-30T03:11:46.788Z,5.63
2019-01-30T03:13:57.608Z,4.93
2019-01-30T03:16:08.398Z,4.83
2019-01-30T03:18:19.205Z,4.60
2019-01-30T03:20:30.030Z,5.17
2019-01-30T03:22:40.845Z,5.00
2019-01-30T03:24:51.661Z,4.57
2019-01-30T03:27:02.552Z,4.90
2019-01-30T03:29:13.360Z,5.13
2019-01-30T03:31:24.181Z,5.40
2019-01-30T03:33:34.976Z,4.93
2019-01-30T03:35:45.815Z,4.90
2019-01-30T03:37:56.683Z,4.53
2019-01-30T03:40:49.165Z,5.33
2019-01-30T03:42:59.974Z,4.70
2019-01-30T03:45:52.437Z,4.77
2019-01-30T03:48:03.328Z,4.97
2019-01-30T03:50:14.331Z,4.90
2019-01-30T03:52:25.141Z,4.77
2019-01-30T03:54:35.948Z,4.50
2019-01-30T03:56:46.770Z,4.60
2019-01-30T03:58:57.562Z,4.43
2019-01-30T04:01:08.391Z,4.70
2019-01-30T04:03:19.237Z,4.83
2019-01-30T04:05:30.025Z,4.93
2019-01-30T04:07:40.839Z,4.83
2019-01-30T04:10:33.302Z,5.13
2019-01-30T04:12:44.345Z,5.23
2019-01-30T04:14:55.136Z,5.53
2019-01-30T04:17:05.943Z,5.10
2019-01-30T04:19:16.734Z,4.90
2019-01-30T04:21:27.635Z,5.23
2019-01-30T04:23:38.453Z,5.27
2019-01-30T04:25:49.365Z,5.47
2019-01-30T04:28:00.178Z,5.00
2019-01-30T04:30:30.841Z,5.17
2019-01-30T04:32:41.673Z,4.97
2019-01-30T04:34:52.469Z,5.40
2019-01-30T04:37:03.354Z,5.60
2019-01-30T04:39:14.177Z,5.50
2019-01-30T04:41:24.966Z,5.13
2019-01-30T04:43:35.776Z,5.57
2019-01-30T04:45:46.562Z,5.80
2019-01-30T04:47:57.415Z,5.67
2019-01-30T04:50:49.869Z,5.83
2019-01-30T04:53:00.687Z,6.10
2019-01-30T04:55:11.723Z,5.47
2019-01-30T04:57:22.471Z,5.70
2019-01-30T04:59:33.297Z,5.90
2019-01-30T05:01:49.587Z,5.13
2019-01-30T05:03:56.828Z,5.97
2019-01-30T05:06:07.718Z,5.73
2019-01-30T05:08:18.514Z,5.60
2019-01-30T05:10:29.339Z,5.13
2019-01-30T05:12:40.131Z,5.27
2019-01-30T05:14:51.059Z,5.23
2019-01-30T05:17:01.859Z,5.10
2019-01-30T05:21:43.141Z,5.50
2019-01-30T05:23:54.057Z,5.00
2019-01-30T05:26:04.866Z,5.53
2019-01-30T05:28:15.664Z,5.47
2019-01-30T05:31:08.141Z,4.83
2019-01-30T05:33:18.955Z,5.40
2019-01-30T05:35:29.771Z,5.47
2019-01-30T05:37:40.579Z,5.23
2019-01-30T05:39:51.384Z,5.67
2019-01-30T05:42:02.220Z,5.60
2019-01-30T05:44:13.021Z,5.40
2019-01-30T05:46:23.841Z,6.80
2019-01-30T05:48:34.633Z,6.20
2019-01-30T05:50:45.479Z,6.33
2019-01-30T05:52:56.278Z,6.60
2019-01-30T05:55:48.796Z,6.37
2019-01-30T05:57:59.596Z,5.70
2019-01-30T06:00:52.057Z,5.87
2019-01-30T06:03:03.077Z,6.20
2019-01-30T06:05:13.990Z,6.17
2019-01-30T06:07:24.875Z,5.93
2019-01-30T06:09:35.680Z,6.20
2019-01-30T06:11:46.514Z,5.93
2019-01-30T06:13:57.321Z,6.80
2019-01-30T06:16:08.115Z,5.63
2019-01-30T06:18:18.926Z,5.83
2019-01-30T06:20:29.823Z,6.60
2019-01-30T06:22:40.672Z,4.80
2019-01-30T06:24:51.548Z,5.73
2019-01-30T06:27:02.357Z,4.97
2019-01-30T06:29:13.148Z,6.00
2019-01-30T06:31:23.951Z,5.57
2019-01-30T06:33:34.869Z,5.30
2019-01-30T06:35:45.670Z,5.70
2019-01-30T06:37:56.481Z,5.27
2019-01-30T06:40:28.251Z,4.90
2019-01-30T06:42:39.080Z,5.40
2019-01-30T06:44:49.982Z,5.53
2019-01-30T06:47:00.757Z,4.90
2019-01-30T06:49:11.633Z,5.07
2019-01-30T06:51:22.448Z,4.73
2019-01-30T06:53:33.367Z,4.43
2019-01-30T06:55:44.153Z,4.40
2019-01-30T06:57:54.973Z,4.53
2019-01-30T07:00:25.660Z,5.00
2019-01-30T07:02:36.478Z,4.80
2019-01-30T07:04:47.419Z,4.20
2019-01-30T07:06:58.222Z,4.50
2019-01-30T07:09:09.176Z,4.63
2019-01-30T07:11:19.961Z,4.87
2019-01-30T07:13:30.772Z,4.80
2019-01-30T07:15:41.581Z,5.10
2019-01-30T07:18:14.216Z,4.30
2019-01-30T07:20:25.136Z,3.93
2019-01-30T07:22:36.046Z,4.50
2019-01-30T07:24:46.868Z,4.80
2019-01-30T07:26:57.768Z,5.03
2019-01-30T07:29:08.582Z,4.83
2019-01-30T07:31:19.411Z,5.17
2019-01-30T07:33:30.259Z,4.53
2019-01-30T07:35:41.080Z,3.83
2019-01-30T07:37:51.980Z,4.07
2019-01-30T07:40:44.437Z,3.27
2019-01-30T07:42:55.252Z,2.80
2019-01-30T07:45:47.736Z,3.17
2019-01-30T07:47:58.531Z,2.70
2019-01-30T07:50:51.014Z,3.30
2019-01-30T07:53:01.813Z,3.33
2019-01-30T07:55:54.278Z,3.70
2019-01-30T07:58:05.934Z,2.50
2019-01-30T08:00:59.446Z,2.27
2019-01-30T08:03:10.255Z,2.90
2019-01-30T08:05:22.717Z,2.37
2019-01-30T08:07:34.014Z,2.50
2019-01-30T08:09:44.842Z,3.20
2019-01-30T08:11:55.685Z,3.60
2019-01-30T08:14:06.476Z,4.20
2019-01-30T08:16:17.305Z,3.80
2019-01-30T08:18:28.212Z,3.00
2019-01-30T08:20:39.231Z,3.67
2019-01-30T08:22:50.150Z,3.50
2019-01-30T08:25:01.214Z,3.07
2019-01-30T08:27:13.849Z,2.67
2019-01-30T08:29:24.916Z,2.80
2019-01-30T08:31:37.470Z,2.83
2019-01-30T08:33:48.312Z,2.50
2019-01-30T08:35:59.235Z,2.40
2019-01-30T08:38:10.069Z,2.73
2019-01-30T08:40:20.867Z,2.30
2019-01-30T08:42:31.670Z,2.53
2019-01-30T08:44:46.995Z,2.23
2019-01-30T08:46:55.286Z,2.83
2019-01-30T08:49:06.247Z,2.30
2019-01-30T08:51:17.194Z,3.00
2019-01-30T08:53:28.022Z,2.30
2019-01-30T08:55:38.802Z,2.40
2019-01-30T08:57:49.729Z,2.63
2019-01-30T09:00:00.532Z,2.60
2019-01-30T09:02:11.338Z,3.00
2019-01-30T09:04:22.161Z,2.70
2019-01-30T09:06:32.959Z,2.90
2019-01-30T09:08:43.774Z,2.70
2019-01-30T09:10:54.573Z,2.63
2019-01-30T09:13:05.394Z,2.63
2019-01-30T09:15:57.839Z,2.73
2019-01-30T09:18:08.794Z,2.40
2019-01-30T09:21:01.265Z,2.47
2019-01-30T09:23:12.108Z,2.80
2019-01-30T09:26:04.587Z,2.60
2019-01-30T09:28:15.455Z,2.77
2019-01-30T09:30:48.049Z,2.80
2019-01-30T09:32:59.143Z,2.80
2019-01-30T09:35:51.643Z,2.90
2019-01-30T09:38:02.531Z,2.60
2019-01-30T09:40:55.004Z,2.73
2019-01-30T09:43:05.896Z,2.47
2019-01-30T09:45:58.407Z,2.63
2019-01-30T09:48:09.237Z,2.60
2019-01-30T09:50:39.921Z,2.63
2019-01-30T09:53:32.401Z,2.37
2019-01-30T09:55:43.335Z,2.50
2019-01-30T09:57:54.185Z,2.30
2019-01-30T10:00:46.660Z,3.00
2019-01-30T10:02:57.456Z,2.40
2019-01-30T10:05:49.931Z,2.60
2019-01-30T10:08:00.725Z,2.60
2019-01-30T10:10:51.348Z,2.53
2019-01-30T10:13:43.800Z,2.47
2019-01-30T10:15:54.721Z,2.80
2019-01-30T10:18:05.629Z,2.87
2019-01-30T10:20:58.112Z,2.27
2019-01-30T10:23:09.022Z,2.50
2019-01-30T10:25:19.830Z,2.30
2019-01-30T10:27:30.651Z,2.07
2019-01-30T10:29:41.470Z,1.93
2019-01-30T10:31:52.291Z,1.60
2019-01-30T10:34:03.205Z,1.80
2019-01-30T10:36:14.019Z,1.40
2019-01-30T10:38:24.828Z,1.50
2019-01-30T10:40:35.756Z,1.10
2019-01-30T10:43:28.443Z,1.13
2019-01-30T10:45:39.377Z,0.53
2019-01-30T10:47:50.297Z,0.53
2019-01-30T10:50:01.290Z,0.60
2019-01-30T10:52:12.119Z,0.40
2019-01-30T10:54:22.917Z,0.30
2019-01-30T10:56:33.743Z,0.30
2019-01-30T10:58:44.563Z,0.57
2019-01-30T11:00:55.459Z,0.40
2019-01-30T11:03:06.302Z,0.50
2019-01-30T11:05:17.202Z,0.40
2019-01-30T11:07:28.001Z,0.40
2019-01-30T11:09:38.792Z,0.30
2019-01-30T11:11:49.635Z,0.40
2019-01-30T11:14:00.451Z,0.50
2019-01-30T11:16:11.249Z,0.40
2019-01-30T11:18:22.192Z,0.33
2019-01-30T11:20:33.125Z,0.40
2019-01-30T11:23:25.605Z,0.20
2019-01-30T11:26:18.081Z,0.40
2019-01-30T11:28:28.956Z,0.30
2019-01-30T11:30:39.758Z,0.30
2019-01-30T11:32:50.662Z,0.30
2019-01-30T11:35:01.601Z,0.40
2019-01-30T11:37:12.394Z,0.37
2019-01-30T11:39:23.201Z,0.40
2019-01-30T11:41:34.036Z,0.40
2019-01-30T11:43:44.846Z,0.40
2019-01-30T11:45:55.652Z,0.60
2019-01-30T11:48:06.562Z,0.30
2019-01-30T11:50:17.615Z,0.60
2019-01-30T11:52:28.519Z,0.30
2019-01-30T11:54:39.393Z,0.30
2019-01-30T11:56:50.207Z,0.40
2019-01-30T11:59:01.032Z,0.50
2019-01-30T12:01:11.875Z,0.30
2019-01-30T12:03:22.661Z,0.20
2019-01-30T12:05:33.589Z,0.20
2019-01-30T12:07:44.440Z,0.30
2019-01-30T12:09:55.965Z,0.27
2019-01-30T12:12:07.986Z,0.20
2019-01-30T12:14:18.785Z,0.20
2019-01-30T12:16:29.595Z,0.33
2019-01-30T12:18:40.393Z,0.23
2019-01-30T12:20:51.964Z,0.20
2019-01-30T12:23:04.232Z,0.30
2019-01-30T12:25:56.707Z,0.30
2019-01-30T12:28:07.625Z,0.37
2019-01-30T12:31:00.085Z,0.10
2019-01-30T12:33:10.946Z,0.20
2019-01-30T12:36:03.406Z,0.30
2019-01-30T12:38:14.325Z,0.30
2019-01-30T12:40:25.111Z,0.23
2019-01-30T12:42:35.997Z,0.90
2019-01-30T12:44:46.892Z,0.30
2019-01-30T12:46:57.691Z,0.20
2019-01-30T12:49:08.504Z,0.40
2019-01-30T12:51:19.456Z,0.30
2019-01-30T12:53:30.249Z,0.30
2019-01-30T12:55:41.067Z,0.20
2019-01-30T12:57:51.870Z,0.20
2019-01-30T13:00:24.451Z,0.30
2019-01-30T13:02:35.399Z,0.30
2019-01-30T13:04:46.236Z,0.43
2019-01-30T13:06:57.041Z,0.30
2019-01-30T13:09:07.967Z,0.33
2019-01-30T13:11:18.779Z,0.23
2019-01-30T13:13:29.616Z,0.30
2019-01-30T13:15:40.430Z,0.20
2019-01-30T13:17:51.267Z,0.23
2019-01-30T13:22:40.153Z,0.47
2019-01-30T13:24:50.989Z,0.20
2019-01-30T13:27:01.787Z,0.30
2019-01-30T13:29:12.603Z,0.30
2019-01-30T13:31:23.402Z,0.30
2019-01-30T13:33:34.227Z,0.40
2019-01-30T13:35:45.219Z,0.30
2019-01-30T13:37:56.026Z,0.30
2019-01-30T13:40:46.589Z,0.40
2019-01-30T13:42:57.380Z,0.90
2019-01-30T13:45:49.870Z,0.50
2019-01-30T13:48:00.939Z,0.20
2019-01-30T13:50:53.386Z,0.30
2019-01-30T13:53:04.369Z,0.50
2019-01-30T13:55:15.395Z,0.20
2019-01-30T13:57:26.207Z,0.40
2019-01-30T13:59:37.058Z,0.33
2019-01-30T14:01:47.944Z,0.30
2019-01-30T14:03:58.772Z,0.20
2019-01-30T14:06:09.599Z,0.47
2019-01-30T14:08:20.508Z,0.30
2019-01-30T14:12:48.671Z,0.30
2019-01-30T14:14:59.477Z,0.40
2019-01-30T14:17:10.301Z,0.37
2019-01-30T14:19:21.237Z,0.43
2019-01-30T14:21:32.043Z,0.20
2019-01-30T14:23:42.906Z,0.20
2019-01-30T14:25:53.724Z,0.30
2019-01-30T14:28:04.519Z,0.30
2019-01-30T14:30:35.337Z,0.30
2019-01-30T14:32:46.125Z,0.40
2019-01-30T14:34:56.930Z,0.40
2019-01-30T14:37:07.762Z,0.40
2019-01-30T14:39:18.579Z,0.33
2019-01-30T14:41:29.442Z,0.33
2019-01-30T14:43:40.228Z,0.30
2019-01-30T14:45:51.056Z,0.40
2019-01-30T14:48:01.972Z,0.40
2019-01-30T14:50:54.427Z,0.50
2019-01-30T14:53:05.221Z,0.67
2019-01-30T14:55:57.704Z,0.50
2019-01-30T14:58:50.166Z,0.40
2019-01-30T15:01:00.961Z,0.50
2019-01-30T15:03:31.692Z,0.37
2019-01-30T15:05:42.648Z,0.60
2019-01-30T15:07:53.537Z,0.30
2019-01-30T15:10:45.935Z,0.60
2019-01-30T15:13:38.418Z,0.47
2019-01-30T15:15:49.236Z,0.40
2019-01-30T15:18:00.176Z,0.40
2019-01-30T15:20:52.709Z,0.43
2019-01-30T15:23:45.134Z,0.50
2019-01-30T15:25:55.976Z,0.60
2019-01-30T15:28:06.929Z,0.50
2019-01-30T15:30:39.510Z,0.37
2019-01-30T15:33:32.002Z,0.30
2019-01-30T15:35:42.805Z,0.63
2019-01-30T15:37:53.628Z,0.57
2019-01-30T15:40:25.236Z,0.70
2019-01-30T15:42:36.064Z,0.50
2019-01-30T15:44:47.007Z,0.70
2019-01-30T15:46:57.909Z,0.57
2019-01-30T15:49:08.726Z,0.60
2019-01-30T15:51:19.535Z,0.60
2019-01-30T15:53:30.470Z,0.67
2019-01-30T15:56:22.933Z,0.77
2019-01-30T15:58:33.768Z,0.50
2019-01-30T16:01:26.228Z,0.60
2019-01-30T16:03:37.046Z,0.70
2019-01-30T16:05:47.944Z,0.80
2019-01-30T16:07:58.763Z,0.53
2019-01-30T16:10:51.237Z,1.00
2019-01-30T16:13:02.246Z,0.60
2019-01-30T16:15:54.731Z,0.60
2019-01-30T16:20:58.022Z,0.70
2019-01-30T16:23:08.804Z,0.60
2019-01-30T16:25:19.670Z,0.63
2019-01-30T16:27:30.484Z,0.67
2019-01-30T16:29:41.302Z,0.67
2019-01-30T16:31:52.096Z,0.70
2019-01-30T16:34:03.200Z,0.80
2019-01-30T16:36:14.012Z,0.73
2019-01-30T16:38:24.829Z,0.80
2019-01-30T16:40:35.762Z,0.70
2019-01-30T16:42:46.559Z,0.60
2019-01-30T16:44:57.413Z,0.77
2019-01-30T16:47:08.318Z,0.70
2019-01-30T16:49:19.156Z,1.00
2019-01-30T16:51:30.101Z,0.90
2019-01-30T16:53:41.010Z,0.90
2019-01-30T16:55:51.860Z,0.93
2019-01-30T16:58:44.300Z,0.80
2019-01-30T17:00:55.267Z,1.03
2019-01-30T17:03:47.713Z,1.00
2019-01-30T17:06:07.006Z,0.93
2019-01-30T17:08:11.243Z,1.20
2019-01-30T17:10:22.145Z,1.30
2019-01-30T17:12:32.972Z,1.20
2019-01-30T17:14:43.785Z,1.10
2019-01-30T17:16:54.596Z,1.07
2019-01-30T17:19:05.432Z,1.03
2019-01-30T17:21:16.287Z,1.00
2019-01-30T17:23:27.110Z,0.93
2019-01-30T17:25:38.073Z,1.20
2019-01-30T17:27:48.928Z,1.00
2019-01-30T17:29:59.744Z,1.00
2019-01-30T17:32:10.584Z,0.90
2019-01-30T17:35:03.017Z,0.97
2019-01-30T17:37:13.844Z,1.20
2019-01-30T17:39:24.653Z,1.20
2019-01-30T17:41:35.590Z,1.00
2019-01-30T17:43:46.425Z,1.27
2019-01-30T17:45:57.252Z,1.27
2019-01-30T17:48:49.761Z,0.97
2019-01-30T17:51:00.576Z,2.77
2019-01-30T17:53:11.447Z,1.10
2019-01-30T17:55:22.262Z,1.63
2019-01-30T17:57:33.074Z,1.00
2019-01-30T17:59:43.886Z,1.30
2019-01-30T18:01:54.793Z,1.20
2019-01-30T18:04:05.716Z,1.33
2019-01-30T18:06:16.518Z,1.47
2019-01-30T18:08:27.511Z,1.27
2019-01-30T18:10:38.316Z,1.37
2019-01-30T18:12:49.250Z,1.20
2019-01-30T18:15:00.139Z,1.50
2019-01-30T18:17:10.984Z,1.30
2019-01-30T18:19:21.822Z,1.10
2019-01-30T18:21:32.648Z,1.20
2019-01-30T18:23:43.547Z,1.63
2019-01-30T18:25:54.582Z,0.93
2019-01-30T18:28:05.610Z,1.27
2019-01-30T18:30:58.083Z,1.07
2019-01-30T18:33:08.920Z,1.30
2019-01-30T18:35:19.799Z,1.10
2019-01-30T18:37:30.614Z,1.33
2019-01-30T18:39:41.504Z,1.50
2019-01-30T18:41:52.273Z,2.33
2019-01-30T18:44:03.206Z,1.63
2019-01-30T18:46:14.153Z,1.20
2019-01-30T18:48:24.950Z,1.27
2019-01-30T18:50:35.927Z,1.17
2019-01-30T18:52:46.867Z,1.20
2019-01-30T18:54:57.760Z,1.00
2019-01-30T18:57:08.605Z,0.93
2019-01-30T18:59:19.418Z,1.23
2019-01-30T19:01:30.311Z,1.30
2019-01-30T19:03:41.175Z,1.10
2019-01-30T19:05:52.032Z,1.07
2019-01-30T19:08:44.480Z,1.10
2019-01-30T19:10:55.428Z,1.10
2019-01-30T19:13:06.262Z,1.10
2019-01-30T19:15:58.774Z,1.07
2019-01-30T19:18:51.227Z,1.20
2019-01-30T19:21:02.147Z,1.90
2019-01-30T19:23:13.115Z,1.57
2019-01-30T19:25:24.081Z,1.00
2019-01-30T19:27:34.940Z,1.20
2019-01-30T19:29:45.736Z,1.30
2019-01-30T19:31:56.567Z,1.03
2019-01-30T19:34:07.390Z,1.27
2019-01-30T19:36:18.275Z,1.30
2019-01-30T19:38:29.102Z,1.07
2019-01-30T19:40:40.106Z,1.20
2019-01-30T19:42:51.170Z,1.20
2019-01-30T19:45:43.626Z,1.33
2019-01-30T19:48:36.162Z,1.50
2019-01-30T19:50:47.069Z,1.27
2019-01-30T19:53:39.650Z,1.57
2019-01-30T19:55:50.447Z,1.40
2019-01-30T19:58:01.391Z,1.50
2019-01-30T20:00:53.858Z,1.40
2019-01-30T20:05:44.199Z,1.57
2019-01-30T20:07:55.112Z,1.87
2019-01-30T20:10:47.577Z,1.37
2019-01-30T20:12:58.507Z,1.70
2019-01-30T20:15:50.967Z,2.47
2019-01-30T20:18:03.275Z,1.30
2019-01-30T20:20:55.684Z,1.30
2019-01-30T20:23:06.806Z,1.30
2019-01-30T20:25:59.294Z,1.27
2019-01-30T20:28:10.153Z,1.40
2019-01-30T20:31:02.820Z,1.80
2019-01-30T20:33:13.636Z,1.53
2019-01-30T20:35:24.695Z,1.77
2019-01-30T20:37:37.733Z,1.70
2019-01-30T20:39:48.748Z,1.60
2019-01-30T20:41:59.560Z,2.50
2019-01-30T20:44:10.403Z,1.97
2019-01-30T20:46:21.256Z,2.27
2019-01-30T20:48:32.438Z,1.90
2019-01-30T20:53:14.059Z,1.90
2019-01-30T20:56:06.547Z,2.17
2019-01-30T20:58:17.373Z,1.70
2019-01-30T21:01:09.878Z,1.80
2019-01-30T21:03:20.680Z,1.50
2019-01-30T21:05:31.570Z,1.50
2019-01-30T21:07:42.398Z,1.50
2019-01-30T21:09:53.340Z,1.83
2019-01-30T21:12:04.246Z,1.73
2019-01-30T21:14:15.058Z,1.90
2019-01-30T21:16:25.887Z,1.80
2019-01-30T21:18:36.692Z,1.90
2019-01-30T21:20:47.550Z,1.57
2019-01-30T21:22:58.377Z,1.80
2019-01-30T21:25:29.120Z,1.60
2019-01-30T21:27:40.084Z,2.00
2019-01-30T21:29:50.855Z,1.63
2019-01-30T21:32:01.685Z,1.70
2019-01-30T21:34:12.483Z,1.80
2019-01-30T21:36:23.311Z,1.83
2019-01-30T21:38:34.255Z,2.00
2019-01-30T21:40:45.056Z,2.00
2019-01-30T21:42:56.000Z,1.87
2019-01-30T21:45:48.428Z,2.00
2019-01-30T21:47:59.351Z,1.67
2019-01-30T21:50:51.798Z,1.97
2019-01-30T21:55:42.016Z,2.00
2019-01-30T21:57:52.841Z,1.77
2019-01-30T22:00:45.290Z,1.97
2019-01-30T22:02:56.219Z,1.97
2019-01-30T22:05:07.230Z,1.60
2019-01-30T22:07:18.016Z,1.73
2019-01-30T22:09:28.863Z,2.03
2019-01-30T22:14:12.050Z,2.13
2019-01-30T22:16:22.947Z,2.03
2019-01-30T22:18:33.776Z,1.90
2019-01-30T22:20:44.582Z,1.93
2019-01-30T22:22:55.508Z,1.90
2019-01-30T22:25:48.001Z,1.80
2019-01-30T22:27:58.834Z,1.60
2019-01-30T22:30:51.350Z,1.60
2019-01-30T22:33:43.817Z,1.90
2019-01-30T22:35:54.725Z,1.67
2019-01-30T22:38:12.625Z,1.80
2019-01-30T22:40:18.385Z,2.00
2019-01-30T22:42:29.207Z,2.20
2019-01-30T22:44:40.034Z,2.03
2019-01-30T22:46:50.815Z,1.30
2019-01-30T22:49:01.646Z,1.60
2019-01-30T22:51:12.451Z,1.50
2019-01-30T22:53:23.246Z,1.77
2019-01-30T22:55:53.989Z,1.93
2019-01-30T22:58:04.911Z,1.80
2019-01-30T23:00:57.362Z,1.73
2019-01-30T23:03:08.262Z,1.30
2019-01-30T23:06:00.725Z,1.57
2019-01-30T23:08:53.164Z,1.50
2019-01-30T23:11:43.724Z,1.90
2019-01-30T23:13:54.532Z,1.77
2019-01-30T23:16:45.165Z,1.70
2019-01-30T23:19:37.602Z,1.90
2019-01-30T23:22:28.153Z,1.60
2019-01-30T23:25:18.754Z,1.67
2019-01-30T23:28:11.238Z,1.60
2019-01-30T23:31:01.757Z,1.67
2019-01-30T23:33:34.350Z,1.47
2019-01-30T23:36:06.913Z,1.77
2019-01-30T23:38:59.370Z,1.60
2019-01-30T23:41:49.945Z,1.60
2019-01-30T23:44:42.389Z,1.57
2019-01-30T23:47:34.852Z,1.67
2019-01-30T23:50:25.387Z,1.40
2019-01-30T23:53:16.664Z,1.80
2019-01-30T23:56:07.199Z,1.70
2019-01-30T23:58:59.660Z,1.63
